sensor_id;sensor_type;location;lat;lon;timestamp;temperature;humidity
5128;DHT22;2582;48.770;9.190;2023-07-31T00:00:38;18.20;99.90
5128;DHT22;2582;48.770;9.190;2023-07-31T00:03:04;18.30;99.90
5128;DHT22;2582;48.770;9.190;2023-07-31T00:05:29;18.20;99.90
5128;DHT22;2582;48.770;9.190;2023-07-31T00:07:55;18.20;99.90
5128;DHT22;2582;48.770;9.190;2023-07-31T00:10:20;18.10;99.90
5128;DHT22;2582;48.770;9.190;2023-07-31T00:12:46;18.20;99.90
5128;DHT22;2582;48.770;9.190;2023-07-31T00:15:13;18.20;99.90
5128;DHT22;2582;48.770;9.190;2023-07-31T00:17:39;18.20;99.90
5128;DHT22;2582;48.770;9.190;2023-07-31T00:20:05;18.00;99.90
5128;DHT22;2582;48.770;9.190;2023-07-31T00:22:30;18.20;99.90
5128;DHT22;2582;48.770;9.190;2023-07-31T00:24:56;18.20;99.90
5128;DHT22;2582;48.770;9.190;2023-07-31T00:27:22;18.30;99.90
5128;DHT22;2582;48.770;9.190;2023-07-31T00:29:48;18.30;99.90
5128;DHT22;2582;48.770;9.190;2023-07-31T00:32:13;18.20;99.90
5128;DHT22;2582;48.770;9.190;2023-07-31T00:34:39;18.20;99.90
5128;DHT22;2582;48.770;9.190;2023-07-31T00:37:05;18.20;99.90
5128;DHT22;2582;48.770;9.190;2023-07-31T00:39:31;18.10;99.90
5128;DHT22;2582;48.770;9.190;2023-07-31T00:41:56;18.10;99.90
5128;DHT22;2582;48.770;9.190;2023-07-31T00:44:22;18.10;99.90
5128;DHT22;2582;48.770;9.190;2023-07-31T00:46:48;18.00;99.90
5128;DHT22;2582;48.770;9.190;2023-07-31T00:49:14;17.80;99.90
5128;DHT22;2582;48.770;9.190;2023-07-31T00:51:40;17.70;99.90
5128;DHT22;2582;48.770;9.190;2023-07-31T00:54:06;17.70;99.90
5128;DHT22;2582;48.770;9.190;2023-07-31T00:56:32;17.60;99.90
5128;DHT22;2582;48.770;9.190;2023-07-31T00:58:57;17.70;99.90
5128;DHT22;2582;48.770;9.190;2023-07-31T01:01:23;17.60;99.90
5128;DHT22;2582;48.770;9.190;2023-07-31T01:03:50;17.70;99.90
5128;DHT22;2582;48.770;9.190;2023-07-31T01:09:10;17.90;99.90
5128;DHT22;2582;48.770;9.190;2023-07-31T01:11:48;18.00;99.90
5128;DHT22;2582;48.770;9.190;2023-07-31T01:14:16;18.10;99.90
5128;DHT22;2582;48.770;9.190;2023-07-31T01:16:41;18.20;99.90
5128;DHT22;2582;48.770;9.190;2023-07-31T01:19:09;18.20;99.90
5128;DHT22;2582;48.770;9.190;2023-07-31T01:21:59;18.20;99.90
5128;DHT22;2582;48.770;9.190;2023-07-31T01:24:40;18.20;99.90
5128;DHT22;2582;48.770;9.190;2023-07-31T01:27:17;18.20;99.90
5128;DHT22;2582;48.770;9.190;2023-07-31T01:32:14;18.00;99.90
5128;DHT22;2582;48.770;9.190;2023-07-31T01:34:41;18.00;99.90
5128;DHT22;2582;48.770;9.190;2023-07-31T01:37:07;18.00;99.90
5128;DHT22;2582;48.770;9.190;2023-07-31T01:39:33;18.00;99.90
5128;DHT22;2582;48.770;9.190;2023-07-31T01:41:59;18.00;99.90
5128;DHT22;2582;48.770;9.190;2023-07-31T01:44:24;17.90;99.90
5128;DHT22;2582;48.770;9.190;2023-07-31T01:46:50;17.80;99.90
5128;DHT22;2582;48.770;9.190;2023-07-31T01:49:15;17.80;99.90
5128;DHT22;2582;48.770;9.190;2023-07-31T01:51:41;17.70;99.90
5128;DHT22;2582;48.770;9.190;2023-07-31T01:54:06;17.80;99.90
5128;DHT22;2582;48.770;9.190;2023-07-31T01:56:32;17.90;99.90
5128;DHT22;2582;48.770;9.190;2023-07-31T01:58:58;18.00;99.90
5128;DHT22;2582;48.770;9.190;2023-07-31T02:01:23;18.00;99.90
5128;DHT22;2582;48.770;9.190;2023-07-31T02:03:49;17.90;99.90
5128;DHT22;2582;48.770;9.190;2023-07-31T02:06:14;17.90;99.90
5128;DHT22;2582;48.770;9.190;2023-07-31T02:08:40;17.70;99.90
5128;DHT22;2582;48.770;9.190;2023-07-31T02:11:06;17.70;99.90
5128;DHT22;2582;48.770;9.190;2023-07-31T02:13:31;17.60;99.90
5128;DHT22;2582;48.770;9.190;2023-07-31T02:15:57;17.70;99.90
5128;DHT22;2582;48.770;9.190;2023-07-31T02:18:23;17.70;99.90
5128;DHT22;2582;48.770;9.190;2023-07-31T02:20:52;17.90;99.90
5128;DHT22;2582;48.770;9.190;2023-07-31T02:23:20;17.90;99.90
5128;DHT22;2582;48.770;9.190;2023-07-31T02:25:46;17.90;99.90
5128;DHT22;2582;48.770;9.190;2023-07-31T02:28:12;18.00;99.90
5128;DHT22;2582;48.770;9.190;2023-07-31T02:30:38;18.00;99.90
5128;DHT22;2582;48.770;9.190;2023-07-31T02:33:04;18.00;99.90
5128;DHT22;2582;48.770;9.190;2023-07-31T02:35:30;18.00;99.90
5128;DHT22;2582;48.770;9.190;2023-07-31T02:37:55;17.90;99.90
5128;DHT22;2582;48.770;9.190;2023-07-31T02:40:21;17.90;99.90
5128;DHT22;2582;48.770;9.190;2023-07-31T02:42:46;17.80;99.90
5128;DHT22;2582;48.770;9.190;2023-07-31T02:45:12;17.60;99.90
5128;DHT22;2582;48.770;9.190;2023-07-31T02:47:38;17.70;99.90
5128;DHT22;2582;48.770;9.190;2023-07-31T02:50:04;17.70;99.90
5128;DHT22;2582;48.770;9.190;2023-07-31T02:52:30;17.60;99.90
5128;DHT22;2582;48.770;9.190;2023-07-31T02:54:55;17.60;99.90
5128;DHT22;2582;48.770;9.190;2023-07-31T02:57:21;17.50;99.90
5128;DHT22;2582;48.770;9.190;2023-07-31T02:59:46;17.50;99.90
5128;DHT22;2582;48.770;9.190;2023-07-31T03:02:12;17.50;99.90
5128;DHT22;2582;48.770;9.190;2023-07-31T03:04:38;17.40;99.90
5128;DHT22;2582;48.770;9.190;2023-07-31T03:07:04;17.20;99.90
5128;DHT22;2582;48.770;9.190;2023-07-31T03:09:30;17.20;99.90
5128;DHT22;2582;48.770;9.190;2023-07-31T03:11:55;17.20;99.90
5128;DHT22;2582;48.770;9.190;2023-07-31T03:14:21;17.40;99.90
5128;DHT22;2582;48.770;9.190;2023-07-31T03:16:46;17.30;99.90
5128;DHT22;2582;48.770;9.190;2023-07-31T03:19:12;17.50;99.90
5128;DHT22;2582;48.770;9.190;2023-07-31T03:21:38;17.50;99.90
5128;DHT22;2582;48.770;9.190;2023-07-31T03:24:04;17.50;99.90
5128;DHT22;2582;48.770;9.190;2023-07-31T03:26:31;17.50;99.90
5128;DHT22;2582;48.770;9.190;2023-07-31T03:28:57;17.50;99.90
5128;DHT22;2582;48.770;9.190;2023-07-31T03:31:23;17.60;99.90
5128;DHT22;2582;48.770;9.190;2023-07-31T03:33:48;17.60;99.90
5128;DHT22;2582;48.770;9.190;2023-07-31T03:36:14;17.60;99.90
5128;DHT22;2582;48.770;9.190;2023-07-31T03:38:39;17.60;99.90
5128;DHT22;2582;48.770;9.190;2023-07-31T03:41:05;17.60;99.90
5128;DHT22;2582;48.770;9.190;2023-07-31T03:43:31;17.60;99.90
5128;DHT22;2582;48.770;9.190;2023-07-31T03:45:59;17.60;99.90
5128;DHT22;2582;48.770;9.190;2023-07-31T03:48:25;17.60;99.90
5128;DHT22;2582;48.770;9.190;2023-07-31T03:50:50;17.60;99.90
5128;DHT22;2582;48.770;9.190;2023-07-31T03:53:16;17.60;99.90
5128;DHT22;2582;48.770;9.190;2023-07-31T03:55:41;17.60;99.90
5128;DHT22;2582;48.770;9.190;2023-07-31T03:58:07;17.60;99.90
5128;DHT22;2582;48.770;9.190;2023-07-31T04:00:33;17.60;99.90
5128;DHT22;2582;48.770;9.190;2023-07-31T04:02:58;17.60;99.90
5128;DHT22;2582;48.770;9.190;2023-07-31T04:05:27;17.70;99.90
5128;DHT22;2582;48.770;9.190;2023-07-31T04:07:52;17.70;99.90
5128;DHT22;2582;48.770;9.190;2023-07-31T04:10:18;17.80;99.90
5128;DHT22;2582;48.770;9.190;2023-07-31T04:12:43;17.90;99.90
5128;DHT22;2582;48.770;9.190;2023-07-31T04:15:09;18.00;99.90
5128;DHT22;2582;48.770;9.190;2023-07-31T04:17:35;18.00;99.90
5128;DHT22;2582;48.770;9.190;2023-07-31T04:20:00;18.10;99.90
5128;DHT22;2582;48.770;9.190;2023-07-31T04:22:26;18.30;99.90
5128;DHT22;2582;48.770;9.190;2023-07-31T04:24:51;18.40;99.90
5128;DHT22;2582;48.770;9.190;2023-07-31T04:27:17;18.60;99.90
5128;DHT22;2582;48.770;9.190;2023-07-31T04:29:42;18.50;99.90
5128;DHT22;2582;48.770;9.190;2023-07-31T04:32:11;18.60;99.90
5128;DHT22;2582;48.770;9.190;2023-07-31T04:34:36;18.70;99.90
5128;DHT22;2582;48.770;9.190;2023-07-31T04:37:02;18.60;99.90
5128;DHT22;2582;48.770;9.190;2023-07-31T04:39:28;18.70;99.90
5128;DHT22;2582;48.770;9.190;2023-07-31T04:41:53;18.70;99.90
5128;DHT22;2582;48.770;9.190;2023-07-31T04:44:19;18.80;99.90
5128;DHT22;2582;48.770;9.190;2023-07-31T04:46:44;18.90;99.90
5128;DHT22;2582;48.770;9.190;2023-07-31T04:49:11;18.90;99.90
5128;DHT22;2582;48.770;9.190;2023-07-31T04:51:37;18.90;99.90
5128;DHT22;2582;48.770;9.190;2023-07-31T04:54:02;18.80;99.90
5128;DHT22;2582;48.770;9.190;2023-07-31T04:56:28;18.90;99.90
5128;DHT22;2582;48.770;9.190;2023-07-31T04:58:53;18.90;99.90
5128;DHT22;2582;48.770;9.190;2023-07-31T05:01:19;18.90;99.90
5128;DHT22;2582;48.770;9.190;2023-07-31T05:03:44;18.90;99.90
5128;DHT22;2582;48.770;9.190;2023-07-31T05:06:10;19.00;99.90
5128;DHT22;2582;48.770;9.190;2023-07-31T05:08:36;19.00;99.90
5128;DHT22;2582;48.770;9.190;2023-07-31T05:11:02;19.00;99.90
5128;DHT22;2582;48.770;9.190;2023-07-31T05:13:28;18.90;99.90
5128;DHT22;2582;48.770;9.190;2023-07-31T05:15:54;19.00;99.90
5128;DHT22;2582;48.770;9.190;2023-07-31T05:18:19;19.00;99.90
5128;DHT22;2582;48.770;9.190;2023-07-31T05:20:45;19.00;99.90
5128;DHT22;2582;48.770;9.190;2023-07-31T05:23:10;19.00;99.90
5128;DHT22;2582;48.770;9.190;2023-07-31T05:25:36;19.00;99.90
5128;DHT22;2582;48.770;9.190;2023-07-31T05:28:01;19.00;99.90
5128;DHT22;2582;48.770;9.190;2023-07-31T05:30:27;18.90;99.90
5128;DHT22;2582;48.770;9.190;2023-07-31T05:32:54;18.90;99.90
5128;DHT22;2582;48.770;9.190;2023-07-31T05:35:20;18.80;99.90
5128;DHT22;2582;48.770;9.190;2023-07-31T05:37:45;18.70;99.90
5128;DHT22;2582;48.770;9.190;2023-07-31T05:40:11;18.60;99.90
5128;DHT22;2582;48.770;9.190;2023-07-31T05:42:37;18.70;99.90
5128;DHT22;2582;48.770;9.190;2023-07-31T05:45:05;18.80;99.90
5128;DHT22;2582;48.770;9.190;2023-07-31T05:47:30;19.10;99.90
5128;DHT22;2582;48.770;9.190;2023-07-31T05:49:56;19.20;99.90
5128;DHT22;2582;48.770;9.190;2023-07-31T05:52:21;19.10;99.90
5128;DHT22;2582;48.770;9.190;2023-07-31T05:54:47;19.20;99.90
5128;DHT22;2582;48.770;9.190;2023-07-31T05:57:12;19.30;99.90
5128;DHT22;2582;48.770;9.190;2023-07-31T05:59:38;19.40;99.90
5128;DHT22;2582;48.770;9.190;2023-07-31T06:02:04;19.60;99.90
5128;DHT22;2582;48.770;9.190;2023-07-31T06:04:29;19.70;99.90
5128;DHT22;2582;48.770;9.190;2023-07-31T06:06:56;19.80;99.90
5128;DHT22;2582;48.770;9.190;2023-07-31T06:09:21;19.70;99.90
5128;DHT22;2582;48.770;9.190;2023-07-31T06:11:47;20.00;99.90
5128;DHT22;2582;48.770;9.190;2023-07-31T06:14:13;20.10;99.90
5128;DHT22;2582;48.770;9.190;2023-07-31T06:16:38;20.20;99.90
5128;DHT22;2582;48.770;9.190;2023-07-31T06:19:04;20.50;99.90
5128;DHT22;2582;48.770;9.190;2023-07-31T06:21:30;20.30;99.90
5128;DHT22;2582;48.770;9.190;2023-07-31T06:23:56;20.20;99.90
5128;DHT22;2582;48.770;9.190;2023-07-31T06:26:22;20.20;99.90
5128;DHT22;2582;48.770;9.190;2023-07-31T06:28:47;20.30;99.90
5128;DHT22;2582;48.770;9.190;2023-07-31T06:31:13;20.10;99.90
5128;DHT22;2582;48.770;9.190;2023-07-31T06:33:38;20.00;99.90
5128;DHT22;2582;48.770;9.190;2023-07-31T06:36:04;20.30;99.90
5128;DHT22;2582;48.770;9.190;2023-07-31T06:38:29;20.60;99.90
5128;DHT22;2582;48.770;9.190;2023-07-31T06:40:55;20.80;99.90
5128;DHT22;2582;48.770;9.190;2023-07-31T06:43:21;20.60;99.90
5128;DHT22;2582;48.770;9.190;2023-07-31T06:45:46;20.60;99.90
5128;DHT22;2582;48.770;9.190;2023-07-31T06:48:15;20.60;99.90
5128;DHT22;2582;48.770;9.190;2023-07-31T06:50:40;20.60;99.90
5128;DHT22;2582;48.770;9.190;2023-07-31T06:53:06;20.70;99.90
5128;DHT22;2582;48.770;9.190;2023-07-31T06:55:32;20.90;99.90
5128;DHT22;2582;48.770;9.190;2023-07-31T06:57:57;21.00;99.90
5128;DHT22;2582;48.770;9.190;2023-07-31T07:00:23;21.20;99.90
5128;DHT22;2582;48.770;9.190;2023-07-31T07:02:49;21.20;99.90
5128;DHT22;2582;48.770;9.190;2023-07-31T07:05:16;21.30;99.90
5128;DHT22;2582;48.770;9.190;2023-07-31T07:07:42;21.10;99.90
5128;DHT22;2582;48.770;9.190;2023-07-31T07:10:08;21.20;99.90
5128;DHT22;2582;48.770;9.190;2023-07-31T07:12:34;20.90;99.90
5128;DHT22;2582;48.770;9.190;2023-07-31T07:15:00;21.10;99.90
5128;DHT22;2582;48.770;9.190;2023-07-31T07:17:27;21.20;99.90
5128;DHT22;2582;48.770;9.190;2023-07-31T07:19:53;21.60;99.90
5128;DHT22;2582;48.770;9.190;2023-07-31T07:22:19;21.50;99.90
5128;DHT22;2582;48.770;9.190;2023-07-31T07:24:44;21.60;99.90
5128;DHT22;2582;48.770;9.190;2023-07-31T07:27:10;21.80;99.90
5128;DHT22;2582;48.770;9.190;2023-07-31T07:29:38;21.90;99.90
5128;DHT22;2582;48.770;9.190;2023-07-31T07:32:04;22.00;99.90
5128;DHT22;2582;48.770;9.190;2023-07-31T07:34:30;21.90;99.90
5128;DHT22;2582;48.770;9.190;2023-07-31T07:36:55;21.80;99.90
5128;DHT22;2582;48.770;9.190;2023-07-31T07:39:21;21.80;99.90
5128;DHT22;2582;48.770;9.190;2023-07-31T07:41:47;21.70;99.90
5128;DHT22;2582;48.770;9.190;2023-07-31T07:44:13;21.70;99.90
5128;DHT22;2582;48.770;9.190;2023-07-31T07:46:39;21.60;99.90
5128;DHT22;2582;48.770;9.190;2023-07-31T07:49:05;21.90;99.90
5128;DHT22;2582;48.770;9.190;2023-07-31T07:51:31;22.20;99.90
5128;DHT22;2582;48.770;9.190;2023-07-31T07:53:57;22.40;99.90
5128;DHT22;2582;48.770;9.190;2023-07-31T07:56:24;22.70;99.90
5128;DHT22;2582;48.770;9.190;2023-07-31T07:58:50;22.80;99.90
5128;DHT22;2582;48.770;9.190;2023-07-31T08:01:16;22.80;99.90
5128;DHT22;2582;48.770;9.190;2023-07-31T08:03:42;22.60;99.90
5128;DHT22;2582;48.770;9.190;2023-07-31T08:06:07;22.50;99.90
5128;DHT22;2582;48.770;9.190;2023-07-31T08:08:35;22.70;99.90
5128;DHT22;2582;48.770;9.190;2023-07-31T08:11:01;22.80;99.90
5128;DHT22;2582;48.770;9.190;2023-07-31T08:13:26;22.50;99.90
5128;DHT22;2582;48.770;9.190;2023-07-31T08:15:52;22.40;99.90
5128;DHT22;2582;48.770;9.190;2023-07-31T08:18:18;22.50;99.90
5128;DHT22;2582;48.770;9.190;2023-07-31T08:20:44;22.60;99.90
5128;DHT22;2582;48.770;9.190;2023-07-31T08:23:10;22.70;99.90
5128;DHT22;2582;48.770;9.190;2023-07-31T08:25:36;22.60;99.90
5128;DHT22;2582;48.770;9.190;2023-07-31T08:28:05;22.60;99.90
5128;DHT22;2582;48.770;9.190;2023-07-31T08:30:31;22.80;99.90
5128;DHT22;2582;48.770;9.190;2023-07-31T08:32:59;23.00;99.90
5128;DHT22;2582;48.770;9.190;2023-07-31T08:35:25;23.10;99.90
5128;DHT22;2582;48.770;9.190;2023-07-31T08:37:51;23.30;99.90
5128;DHT22;2582;48.770;9.190;2023-07-31T08:40:16;23.30;99.90
5128;DHT22;2582;48.770;9.190;2023-07-31T08:42:46;23.40;99.90
5128;DHT22;2582;48.770;9.190;2023-07-31T08:45:16;23.20;99.90
5128;DHT22;2582;48.770;9.190;2023-07-31T08:47:47;23.20;99.90
5128;DHT22;2582;48.770;9.190;2023-07-31T08:50:14;23.50;99.90
5128;DHT22;2582;48.770;9.190;2023-07-31T08:52:40;23.50;99.50
5128;DHT22;2582;48.770;9.190;2023-07-31T08:55:07;23.80;99.80
5128;DHT22;2582;48.770;9.190;2023-07-31T08:57:36;23.90;99.20
5128;DHT22;2582;48.770;9.190;2023-07-31T09:00:03;23.70;99.90
5128;DHT22;2582;48.770;9.190;2023-07-31T09:02:35;23.90;99.00
5128;DHT22;2582;48.770;9.190;2023-07-31T09:05:03;24.30;99.40
5128;DHT22;2582;48.770;9.190;2023-07-31T09:07:31;24.30;98.10
5128;DHT22;2582;48.770;9.190;2023-07-31T09:09:58;24.10;98.50
5128;DHT22;2582;48.770;9.190;2023-07-31T09:12:25;23.80;98.30
5128;DHT22;2582;48.770;9.190;2023-07-31T09:14:51;23.90;98.10
5128;DHT22;2582;48.770;9.190;2023-07-31T09:17:31;24.00;98.70
5128;DHT22;2582;48.770;9.190;2023-07-31T09:19:57;23.70;98.40
5128;DHT22;2582;48.770;9.190;2023-07-31T09:22:34;23.80;99.10
5128;DHT22;2582;48.770;9.190;2023-07-31T09:27:46;23.80;98.70
5128;DHT22;2582;48.770;9.190;2023-07-31T09:30:13;23.90;98.50
5128;DHT22;2582;48.770;9.190;2023-07-31T09:32:38;24.00;99.10
5128;DHT22;2582;48.770;9.190;2023-07-31T09:35:27;24.30;98.80
5128;DHT22;2582;48.770;9.190;2023-07-31T09:37:58;24.30;98.80
5128;DHT22;2582;48.770;9.190;2023-07-31T09:40:44;23.80;98.70
5128;DHT22;2582;48.770;9.190;2023-07-31T09:43:22;24.00;99.40
5128;DHT22;2582;48.770;9.190;2023-07-31T09:45:55;23.80;98.80
5128;DHT22;2582;48.770;9.190;2023-07-31T09:48:23;24.00;99.20
5128;DHT22;2582;48.770;9.190;2023-07-31T09:50:51;24.00;99.40
5128;DHT22;2582;48.770;9.190;2023-07-31T09:53:17;23.90;98.70
5128;DHT22;2582;48.770;9.190;2023-07-31T09:55:43;24.10;98.90
5128;DHT22;2582;48.770;9.190;2023-07-31T09:58:11;24.60;99.50
5128;DHT22;2582;48.770;9.190;2023-07-31T10:00:37;24.50;98.60
5128;DHT22;2582;48.770;9.190;2023-07-31T10:03:10;24.80;97.90
5128;DHT22;2582;48.770;9.190;2023-07-31T10:05:37;24.90;98.10
5128;DHT22;2582;48.770;9.190;2023-07-31T10:08:04;25.20;98.70
5128;DHT22;2582;48.770;9.190;2023-07-31T10:10:32;24.50;97.60
5128;DHT22;2582;48.770;9.190;2023-07-31T10:12:59;24.80;98.60
5128;DHT22;2582;48.770;9.190;2023-07-31T10:15:25;25.30;97.60
5128;DHT22;2582;48.770;9.190;2023-07-31T10:17:51;25.30;96.50
5128;DHT22;2582;48.770;9.190;2023-07-31T10:20:17;25.00;95.80
5128;DHT22;2582;48.770;9.190;2023-07-31T10:22:44;25.00;96.50
5128;DHT22;2582;48.770;9.190;2023-07-31T10:25:11;25.10;96.60
5128;DHT22;2582;48.770;9.190;2023-07-31T10:27:39;24.80;96.30
5128;DHT22;2582;48.770;9.190;2023-07-31T10:30:14;25.20;96.30
5128;DHT22;2582;48.770;9.190;2023-07-31T10:32:41;25.60;95.30
5128;DHT22;2582;48.770;9.190;2023-07-31T10:35:09;25.40;95.50
5128;DHT22;2582;48.770;9.190;2023-07-31T10:37:42;25.40;96.10
5128;DHT22;2582;48.770;9.190;2023-07-31T10:40:26;25.20;95.50
5128;DHT22;2582;48.770;9.190;2023-07-31T10:42:56;25.00;96.20
5128;DHT22;2582;48.770;9.190;2023-07-31T10:45:34;25.50;96.10
5128;DHT22;2582;48.770;9.190;2023-07-31T10:48:04;25.50;96.30
5128;DHT22;2582;48.770;9.190;2023-07-31T10:50:32;25.20;94.80
5128;DHT22;2582;48.770;9.190;2023-07-31T10:52:59;25.30;95.00
5128;DHT22;2582;48.770;9.190;2023-07-31T10:55:42;25.20;95.00
5128;DHT22;2582;48.770;9.190;2023-07-31T10:58:10;24.70;95.40
5128;DHT22;2582;48.770;9.190;2023-07-31T11:00:44;24.60;96.00
5128;DHT22;2582;48.770;9.190;2023-07-31T11:03:15;25.10;95.70
5128;DHT22;2582;48.770;9.190;2023-07-31T11:05:52;25.70;95.10
5128;DHT22;2582;48.770;9.190;2023-07-31T11:08:24;26.00;94.00
5128;DHT22;2582;48.770;9.190;2023-07-31T11:13:45;26.00;94.70
5128;DHT22;2582;48.770;9.190;2023-07-31T11:16:12;25.50;94.40
5128;DHT22;2582;48.770;9.190;2023-07-31T11:18:42;25.20;95.60
5128;DHT22;2582;48.770;9.190;2023-07-31T11:21:16;25.30;95.50
5128;DHT22;2582;48.770;9.190;2023-07-31T11:23:49;25.20;95.00
5128;DHT22;2582;48.770;9.190;2023-07-31T11:26:16;25.20;95.00
5128;DHT22;2582;48.770;9.190;2023-07-31T11:28:42;25.10;95.40
5128;DHT22;2582;48.770;9.190;2023-07-31T11:31:09;25.20;94.80
5128;DHT22;2582;48.770;9.190;2023-07-31T11:33:35;25.30;95.00
5128;DHT22;2582;48.770;9.190;2023-07-31T11:36:01;24.70;95.10
5128;DHT22;2582;48.770;9.190;2023-07-31T11:38:32;24.90;96.40
5128;DHT22;2582;48.770;9.190;2023-07-31T11:41:02;25.10;96.10
5128;DHT22;2582;48.770;9.190;2023-07-31T11:43:28;25.30;96.10
5128;DHT22;2582;48.770;9.190;2023-07-31T11:45:56;25.40;96.40
5128;DHT22;2582;48.770;9.190;2023-07-31T11:48:26;26.30;94.20
5128;DHT22;2582;48.770;9.190;2023-07-31T11:50:53;26.90;92.90
5128;DHT22;2582;48.770;9.190;2023-07-31T11:55:52;27.20;93.00
5128;DHT22;2582;48.770;9.190;2023-07-31T11:58:20;27.10;93.30
5128;DHT22;2582;48.770;9.190;2023-07-31T12:00:46;27.10;92.50
5128;DHT22;2582;48.770;9.190;2023-07-31T12:03:12;27.00;92.60
5128;DHT22;2582;48.770;9.190;2023-07-31T12:05:38;26.50;93.20
5128;DHT22;2582;48.770;9.190;2023-07-31T12:08:09;26.30;93.90
5128;DHT22;2582;48.770;9.190;2023-07-31T12:10:37;25.90;93.40
5128;DHT22;2582;48.770;9.190;2023-07-31T12:15:38;25.40;94.90
5128;DHT22;2582;48.770;9.190;2023-07-31T12:18:12;25.80;94.60
5128;DHT22;2582;48.770;9.190;2023-07-31T12:20:49;25.60;94.00
5128;DHT22;2582;48.770;9.190;2023-07-31T12:23:20;25.60;94.30
5128;DHT22;2582;48.770;9.190;2023-07-31T12:26:06;25.90;95.40
5128;DHT22;2582;48.770;9.190;2023-07-31T12:28:41;26.00;94.10
5128;DHT22;2582;48.770;9.190;2023-07-31T12:31:09;25.80;94.00
5128;DHT22;2582;48.770;9.190;2023-07-31T12:33:35;25.70;94.70
5128;DHT22;2582;48.770;9.190;2023-07-31T12:36:02;25.40;95.00
5128;DHT22;2582;48.770;9.190;2023-07-31T12:38:29;25.40;96.40
5128;DHT22;2582;48.770;9.190;2023-07-31T12:40:55;25.20;95.50
5128;DHT22;2582;48.770;9.190;2023-07-31T12:43:20;24.60;96.00
5128;DHT22;2582;48.770;9.190;2023-07-31T12:45:46;24.30;95.80
5128;DHT22;2582;48.770;9.190;2023-07-31T12:48:12;24.30;95.60
5128;DHT22;2582;48.770;9.190;2023-07-31T12:50:38;24.60;96.00
5128;DHT22;2582;48.770;9.190;2023-07-31T12:53:04;24.60;96.60
5128;DHT22;2582;48.770;9.190;2023-07-31T12:55:30;24.70;96.60
5128;DHT22;2582;48.770;9.190;2023-07-31T12:57:56;24.50;95.40
5128;DHT22;2582;48.770;9.190;2023-07-31T13:00:22;24.50;95.60
5128;DHT22;2582;48.770;9.190;2023-07-31T13:02:48;24.70;96.60
5128;DHT22;2582;48.770;9.190;2023-07-31T13:05:14;25.30;96.10
5128;DHT22;2582;48.770;9.190;2023-07-31T13:07:40;25.50;95.80
5128;DHT22;2582;48.770;9.190;2023-07-31T13:10:06;25.70;95.10
5128;DHT22;2582;48.770;9.190;2023-07-31T13:12:32;25.80;94.90
5128;DHT22;2582;48.770;9.190;2023-07-31T13:14:58;25.60;94.90
5128;DHT22;2582;48.770;9.190;2023-07-31T13:17:23;25.60;96.20
5128;DHT22;2582;48.770;9.190;2023-07-31T13:19:49;25.60;96.90
5128;DHT22;2582;48.770;9.190;2023-07-31T13:22:14;25.80;96.40
5128;DHT22;2582;48.770;9.190;2023-07-31T13:24:40;25.90;95.00
5128;DHT22;2582;48.770;9.190;2023-07-31T13:27:06;26.10;94.40
5128;DHT22;2582;48.770;9.190;2023-07-31T13:29:31;26.20;94.50
5128;DHT22;2582;48.770;9.190;2023-07-31T13:31:57;26.10;93.40
5128;DHT22;2582;48.770;9.190;2023-07-31T13:34:23;26.20;92.90
5128;DHT22;2582;48.770;9.190;2023-07-31T13:36:48;26.90;92.50
5128;DHT22;2582;48.770;9.190;2023-07-31T13:39:14;27.20;91.60
5128;DHT22;2582;48.770;9.190;2023-07-31T13:41:39;27.60;91.40
5128;DHT22;2582;48.770;9.190;2023-07-31T13:44:05;27.60;91.90
5128;DHT22;2582;48.770;9.190;2023-07-31T13:46:30;27.60;90.90
5128;DHT22;2582;48.770;9.190;2023-07-31T13:48:58;27.60;92.10
5128;DHT22;2582;48.770;9.190;2023-07-31T13:51:25;28.20;91.40
5128;DHT22;2582;48.770;9.190;2023-07-31T13:53:50;28.20;90.90
5128;DHT22;2582;48.770;9.190;2023-07-31T13:56:16;27.70;91.20
5128;DHT22;2582;48.770;9.190;2023-07-31T13:58:42;27.10;90.70
5128;DHT22;2582;48.770;9.190;2023-07-31T14:01:07;27.00;92.80
5128;DHT22;2582;48.770;9.190;2023-07-31T14:03:33;27.00;92.40
5128;DHT22;2582;48.770;9.190;2023-07-31T14:05:58;26.70;92.00
5128;DHT22;2582;48.770;9.190;2023-07-31T14:08:24;26.50;92.50
5128;DHT22;2582;48.770;9.190;2023-07-31T14:10:49;26.30;93.20
5128;DHT22;2582;48.770;9.190;2023-07-31T14:13:15;26.20;93.00
5128;DHT22;2582;48.770;9.190;2023-07-31T14:15:44;25.80;93.30
5128;DHT22;2582;48.770;9.190;2023-07-31T14:18:09;25.90;93.30
5128;DHT22;2582;48.770;9.190;2023-07-31T14:20:35;26.00;94.50
5128;DHT22;2582;48.770;9.190;2023-07-31T14:23:02;26.00;93.90
5128;DHT22;2582;48.770;9.190;2023-07-31T14:25:28;26.40;94.60
5128;DHT22;2582;48.770;9.190;2023-07-31T14:27:54;26.50;94.20
5128;DHT22;2582;48.770;9.190;2023-07-31T14:30:20;26.60;94.80
5128;DHT22;2582;48.770;9.190;2023-07-31T14:32:46;26.80;93.80
5128;DHT22;2582;48.770;9.190;2023-07-31T14:35:12;26.50;93.60
5128;DHT22;2582;48.770;9.190;2023-07-31T14:37:39;26.30;93.60
5128;DHT22;2582;48.770;9.190;2023-07-31T14:40:06;26.40;94.00
5128;DHT22;2582;48.770;9.190;2023-07-31T14:42:32;26.30;94.40
5128;DHT22;2582;48.770;9.190;2023-07-31T14:44:58;26.00;94.80
5128;DHT22;2582;48.770;9.190;2023-07-31T14:47:24;26.50;95.10
5128;DHT22;2582;48.770;9.190;2023-07-31T14:49:49;26.30;93.80
5128;DHT22;2582;48.770;9.190;2023-07-31T14:52:15;26.60;94.00
5128;DHT22;2582;48.770;9.190;2023-07-31T14:54:40;27.00;93.90
5128;DHT22;2582;48.770;9.190;2023-07-31T14:57:06;27.10;92.90
5128;DHT22;2582;48.770;9.190;2023-07-31T14:59:31;26.90;92.40
5128;DHT22;2582;48.770;9.190;2023-07-31T15:01:57;26.90;92.70
5128;DHT22;2582;48.770;9.190;2023-07-31T15:04:23;27.30;93.30
5128;DHT22;2582;48.770;9.190;2023-07-31T15:06:49;27.50;91.50
5128;DHT22;2582;48.770;9.190;2023-07-31T15:09:15;27.50;91.50
5128;DHT22;2582;48.770;9.190;2023-07-31T15:11:40;28.00;91.20
5128;DHT22;2582;48.770;9.190;2023-07-31T15:14:06;28.10;92.00
5128;DHT22;2582;48.770;9.190;2023-07-31T15:16:32;28.40;89.80
5128;DHT22;2582;48.770;9.190;2023-07-31T15:18:57;28.60;90.20
5128;DHT22;2582;48.770;9.190;2023-07-31T15:21:23;28.90;89.60
5128;DHT22;2582;48.770;9.190;2023-07-31T15:23:49;29.20;87.90
5128;DHT22;2582;48.770;9.190;2023-07-31T15:26:14;29.70;86.50
5128;DHT22;2582;48.770;9.190;2023-07-31T15:28:40;29.70;86.50
5128;DHT22;2582;48.770;9.190;2023-07-31T15:31:05;30.00;84.40
5128;DHT22;2582;48.770;9.190;2023-07-31T15:33:31;30.10;83.70
5128;DHT22;2582;48.770;9.190;2023-07-31T15:35:56;30.20;81.70
5128;DHT22;2582;48.770;9.190;2023-07-31T15:38:23;30.30;81.90
5128;DHT22;2582;48.770;9.190;2023-07-31T15:40:49;30.50;80.90
5128;DHT22;2582;48.770;9.190;2023-07-31T15:43:16;30.70;79.70
5128;DHT22;2582;48.770;9.190;2023-07-31T15:45:41;30.20;80.00
5128;DHT22;2582;48.770;9.190;2023-07-31T15:48:07;30.10;80.70
5128;DHT22;2582;48.770;9.190;2023-07-31T15:50:32;29.70;81.10
5128;DHT22;2582;48.770;9.190;2023-07-31T15:52:58;29.80;82.50
5128;DHT22;2582;48.770;9.190;2023-07-31T15:55:23;29.70;81.00
5128;DHT22;2582;48.770;9.190;2023-07-31T15:57:50;29.80;80.90
5128;DHT22;2582;48.770;9.190;2023-07-31T16:00:16;30.30;80.70
5128;DHT22;2582;48.770;9.190;2023-07-31T16:02:42;31.10;79.90
5128;DHT22;2582;48.770;9.190;2023-07-31T16:05:08;31.90;77.90
5128;DHT22;2582;48.770;9.190;2023-07-31T16:07:34;31.80;75.70
5128;DHT22;2582;48.770;9.190;2023-07-31T16:09:59;31.60;75.70
5128;DHT22;2582;48.770;9.190;2023-07-31T16:12:25;31.30;75.90
5128;DHT22;2582;48.770;9.190;2023-07-31T16:14:51;31.40;76.80